sensor_id;sensor_type;location;lat;lon;timestamp;pressure;altitude;pressure_sealevel;temperature;humidity
77110;BME280;66062;52.464;16.922;2023-07-02T00:01:10;99337.56;;;19.80;69.49
77110;BME280;66062;52.464;16.922;2023-07-02T00:03:39;99342.38;;;19.78;69.70
77110;BME280;66062;52.464;16.922;2023-07-02T00:06:05;99342.03;;;19.86;69.47
77110;BME280;66062;52.464;16.922;2023-07-02T00:08:31;99344.63;;;19.81;69.96
77110;BME280;66062;52.464;16.922;2023-07-02T00:10:56;99352.50;;;19.83;70.18
77110;BME280;66062;52.464;16.922;2023-07-02T00:13:22;99338.00;;;19.77;70.96
77110;BME280;66062;52.464;16.922;2023-07-02T00:15:47;99351.06;;;19.69;72.05
77110;BME280;66062;52.464;16.922;2023-07-02T00:18:13;99351.81;;;19.57;72.94
77110;BME280;66062;52.464;16.922;2023-07-02T00:20:44;99352.75;;;19.51;74.59
77110;BME280;66062;52.464;16.922;2023-07-02T00:23:10;99352.06;;;19.56;75.38
77110;BME280;66062;52.464;16.922;2023-07-02T00:25:36;99339.81;;;19.53;74.06
77110;BME280;66062;52.464;16.922;2023-07-02T00:28:02;99334.88;;;19.50;74.75
77110;BME280;66062;52.464;16.922;2023-07-02T00:30:28;99334.47;;;19.47;74.84
77110;BME280;66062;52.464;16.922;2023-07-02T00:32:54;99344.91;;;19.43;75.59
77110;BME280;66062;52.464;16.922;2023-07-02T00:35:19;99335.59;;;19.39;75.70
77110;BME280;66062;52.464;16.922;2023-07-02T00:37:45;99334.09;;;19.43;76.07
77110;BME280;66062;52.464;16.922;2023-07-02T00:40:10;99336.50;;;19.33;76.53
77110;BME280;66062;52.464;16.922;2023-07-02T00:42:36;99325.38;;;19.41;76.16
77110;BME280;66062;52.464;16.922;2023-07-02T00:45:01;99325.38;;;19.41;75.95
77110;BME280;66062;52.464;16.922;2023-07-02T00:47:32;99322.97;;;19.33;76.18
77110;BME280;66062;52.464;16.922;2023-07-02T00:49:59;99332.16;;;19.32;76.02
77110;BME280;66062;52.464;16.922;2023-07-02T00:52:25;99323.06;;;19.27;76.70
77110;BME280;66062;52.464;16.922;2023-07-02T00:54:51;99317.88;;;19.25;76.67
77110;BME280;66062;52.464;16.922;2023-07-02T00:57:17;99321.88;;;19.22;77.39
77110;BME280;66062;52.464;16.922;2023-07-02T00:59:43;99318.03;;;19.12;78.60
77110;BME280;66062;52.464;16.922;2023-07-02T01:02:09;99319.09;;;19.11;79.16
77110;BME280;66062;52.464;16.922;2023-07-02T01:04:34;99315.63;;;19.22;80.54
77110;BME280;66062;52.464;16.922;2023-07-02T01:07:00;99313.63;;;18.99;82.14
77110;BME280;66062;52.464;16.922;2023-07-02T01:09:26;99314.22;;;18.83;83.75
77110;BME280;66062;52.464;16.922;2023-07-02T01:12:00;99311.59;;;18.58;85.35
77110;BME280;66062;52.464;16.922;2023-07-02T01:14:40;99312.00;;;18.55;86.36
77110;BME280;66062;52.464;16.922;2023-07-02T01:17:06;99308.91;;;18.52;87.46
77110;BME280;66062;52.464;16.922;2023-07-02T01:19:44;99306.09;;;18.40;89.21
77110;BME280;66062;52.464;16.922;2023-07-02T01:22:11;99304.91;;;18.36;90.32
77110;BME280;66062;52.464;16.922;2023-07-02T01:24:40;99310.75;;;18.33;90.96
77110;BME280;66062;52.464;16.922;2023-07-02T01:27:06;99302.69;;;18.26;91.26
77110;BME280;66062;52.464;16.922;2023-07-02T01:29:32;99309.97;;;18.26;92.23
77110;BME280;66062;52.464;16.922;2023-07-02T01:31:57;99302.31;;;18.23;92.73
77110;BME280;66062;52.464;16.922;2023-07-02T01:34:23;99309.19;;;18.19;92.95
77110;BME280;66062;52.464;16.922;2023-07-02T01:36:48;99293.78;;;18.26;92.77
77110;BME280;66062;52.464;16.922;2023-07-02T01:39:14;99296.94;;;18.23;93.78
77110;BME280;66062;52.464;16.922;2023-07-02T01:41:51;99291.38;;;18.18;93.97
77110;BME280;66062;52.464;16.922;2023-07-02T01:44:17;99298.84;;;18.16;94.34
77110;BME280;66062;52.464;16.922;2023-07-02T01:46:43;99287.22;;;18.15;94.10
77110;BME280;66062;52.464;16.922;2023-07-02T01:49:09;99288.00;;;18.22;94.21
77110;BME280;66062;52.464;16.922;2023-07-02T01:51:35;99287.00;;;18.17;94.63
77110;BME280;66062;52.464;16.922;2023-07-02T01:54:03;99291.78;;;18.15;95.15
77110;BME280;66062;52.464;16.922;2023-07-02T01:56:29;99298.00;;;18.15;95.06
77110;BME280;66062;52.464;16.922;2023-07-02T01:58:54;99303.03;;;18.12;95.42
77110;BME280;66062;52.464;16.922;2023-07-02T02:01:20;99295.94;;;18.17;94.68
77110;BME280;66062;52.464;16.922;2023-07-02T02:03:45;99293.22;;;18.17;95.20
77110;BME280;66062;52.464;16.922;2023-07-02T02:06:11;99295.84;;;18.24;94.13
77110;BME280;66062;52.464;16.922;2023-07-02T02:08:36;99309.03;;;18.14;94.76
77110;BME280;66062;52.464;16.922;2023-07-02T02:11:02;99312.19;;;18.11;95.42
77110;BME280;66062;52.464;16.922;2023-07-02T02:13:27;99312.81;;;18.13;95.25
77110;BME280;66062;52.464;16.922;2023-07-02T02:15:53;99302.03;;;18.06;95.96
77110;BME280;66062;52.464;16.922;2023-07-02T02:18:19;99304.38;;;18.03;96.42
77110;BME280;66062;52.464;16.922;2023-07-02T02:20:45;99308.09;;;18.02;96.82
77110;BME280;66062;52.464;16.922;2023-07-02T02:23:10;99306.25;;;18.02;97.52
77110;BME280;66062;52.464;16.922;2023-07-02T02:25:36;99313.06;;;18.05;97.59
77110;BME280;66062;52.464;16.922;2023-07-02T02:28:01;99306.00;;;18.04;97.20
77110;BME280;66062;52.464;16.922;2023-07-02T02:30:27;99306.91;;;17.98;97.88
77110;BME280;66062;52.464;16.922;2023-07-02T02:32:52;99304.78;;;18.00;98.18
77110;BME280;66062;52.464;16.922;2023-07-02T02:35:18;99306.25;;;18.02;97.86
77110;BME280;66062;52.464;16.922;2023-07-02T02:37:43;99305.56;;;18.07;97.81
77110;BME280;66062;52.464;16.922;2023-07-02T02:40:09;99305.16;;;18.03;97.96
77110;BME280;66062;52.464;16.922;2023-07-02T02:42:35;99306.81;;;18.04;98.24
77110;BME280;66062;52.464;16.922;2023-07-02T02:45:03;99309.75;;;18.03;98.48
77110;BME280;66062;52.464;16.922;2023-07-02T02:47:28;99307.31;;;17.94;98.42
77110;BME280;66062;52.464;16.922;2023-07-02T02:49:54;99308.97;;;17.95;99.04
77110;BME280;66062;52.464;16.922;2023-07-02T02:52:19;99308.69;;;18.04;98.99
77110;BME280;66062;52.464;16.922;2023-07-02T02:54:46;99309.31;;;18.06;98.28
77110;BME280;66062;52.464;16.922;2023-07-02T02:57:11;99303.91;;;18.06;98.85
77110;BME280;66062;52.464;16.922;2023-07-02T02:59:36;99321.00;;;18.00;99.00
77110;BME280;66062;52.464;16.922;2023-07-02T03:02:02;99311.41;;;18.04;99.05
77110;BME280;66062;52.464;16.922;2023-07-02T03:04:28;99305.41;;;18.02;98.93
77110;BME280;66062;52.464;16.922;2023-07-02T03:06:53;99311.22;;;17.99;99.22
77110;BME280;66062;52.464;16.922;2023-07-02T03:09:19;99307.44;;;18.06;99.00
77110;BME280;66062;52.464;16.922;2023-07-02T03:11:46;99309.31;;;18.06;99.31
77110;BME280;66062;52.464;16.922;2023-07-02T03:14:11;99305.06;;;18.16;98.17
77110;BME280;66062;52.464;16.922;2023-07-02T03:16:41;99300.59;;;18.04;98.96
77110;BME280;66062;52.464;16.922;2023-07-02T03:19:06;99298.72;;;18.04;99.30
77110;BME280;66062;52.464;16.922;2023-07-02T03:21:32;99293.63;;;17.96;100.00
77110;BME280;66062;52.464;16.922;2023-07-02T03:23:58;99300.94;;;18.14;98.08
77110;BME280;66062;52.464;16.922;2023-07-02T03:26:24;99295.66;;;18.01;99.56
77110;BME280;66062;52.464;16.922;2023-07-02T03:28:52;99300.13;;;18.13;98.62
77110;BME280;66062;52.464;16.922;2023-07-02T03:31:17;99306.66;;;18.24;97.59
77110;BME280;66062;52.464;16.922;2023-07-02T03:33:42;99309.09;;;18.32;96.69
77110;BME280;66062;52.464;16.922;2023-07-02T03:36:08;99306.41;;;18.32;96.66
77110;BME280;66062;52.464;16.922;2023-07-02T03:38:33;99306.22;;;18.27;96.80
77110;BME280;66062;52.464;16.922;2023-07-02T03:41:01;99306.34;;;18.38;96.40
77110;BME280;66062;52.464;16.922;2023-07-02T03:43:26;99316.59;;;18.30;96.47
77110;BME280;66062;52.464;16.922;2023-07-02T03:45:52;99320.31;;;18.29;97.04
77110;BME280;66062;52.464;16.922;2023-07-02T03:48:20;99319.28;;;18.30;96.64
77110;BME280;66062;52.464;16.922;2023-07-02T03:50:46;99316.88;;;18.22;97.13
77110;BME280;66062;52.464;16.922;2023-07-02T03:53:11;99318.53;;;18.23;97.36
77110;BME280;66062;52.464;16.922;2023-07-02T03:55:37;99323.69;;;18.24;97.44
77110;BME280;66062;52.464;16.922;2023-07-02T03:58:04;99330.97;;;18.24;97.45
77110;BME280;66062;52.464;16.922;2023-07-02T04:00:29;99321.81;;;18.25;97.08
77110;BME280;66062;52.464;16.922;2023-07-02T04:02:54;99325.84;;;18.16;98.26
77110;BME280;66062;52.464;16.922;2023-07-02T04:05:20;99325.56;;;18.24;97.21
77110;BME280;66062;52.464;16.922;2023-07-02T04:07:45;99335.31;;;18.25;97.16
77110;BME280;66062;52.464;16.922;2023-07-02T04:10:11;99330.75;;;18.25;96.96
77110;BME280;66062;52.464;16.922;2023-07-02T04:12:36;99329.50;;;18.28;96.96
77110;BME280;66062;52.464;16.922;2023-07-02T04:15:02;99332.41;;;18.26;97.25
77110;BME280;66062;52.464;16.922;2023-07-02T04:17:28;99335.66;;;18.35;96.40
77110;BME280;66062;52.464;16.922;2023-07-02T04:19:54;99334.00;;;18.34;96.13
77110;BME280;66062;52.464;16.922;2023-07-02T04:22:20;99344.22;;;18.32;96.40
77110;BME280;66062;52.464;16.922;2023-07-02T04:24:46;99346.03;;;18.38;96.33
77110;BME280;66062;52.464;16.922;2023-07-02T04:27:15;99353.84;;;18.46;95.42
77110;BME280;66062;52.464;16.922;2023-07-02T04:29:43;99342.16;;;18.52;95.07
77110;BME280;66062;52.464;16.922;2023-07-02T04:32:08;99344.25;;;18.50;94.53
77110;BME280;66062;52.464;16.922;2023-07-02T04:34:33;99350.47;;;18.51;94.82
77110;BME280;66062;52.464;16.922;2023-07-02T04:37:00;99361.78;;;18.41;95.23
77110;BME280;66062;52.464;16.922;2023-07-02T04:39:25;99358.81;;;18.49;94.91
77110;BME280;66062;52.464;16.922;2023-07-02T04:41:51;99365.78;;;18.63;93.97
77110;BME280;66062;52.464;16.922;2023-07-02T04:44:17;99358.84;;;18.74;92.87
77110;BME280;66062;52.464;16.922;2023-07-02T04:46:43;99364.41;;;18.79;92.78
77110;BME280;66062;52.464;16.922;2023-07-02T04:49:11;99360.47;;;18.75;92.67
77110;BME280;66062;52.464;16.922;2023-07-02T04:51:37;99368.06;;;18.85;91.75
77110;BME280;66062;52.464;16.922;2023-07-02T04:54:05;99359.66;;;18.93;91.39
77110;BME280;66062;52.464;16.922;2023-07-02T04:56:31;99369.97;;;19.02;90.46
77110;BME280;66062;52.464;16.922;2023-07-02T04:58:56;99368.81;;;19.10;90.39
77110;BME280;66062;52.464;16.922;2023-07-02T05:01:22;99370.25;;;19.12;89.37
77110;BME280;66062;52.464;16.922;2023-07-02T05:03:47;99378.31;;;19.19;88.50
77110;BME280;66062;52.464;16.922;2023-07-02T05:06:12;99378.59;;;19.11;88.10
77110;BME280;66062;52.464;16.922;2023-07-02T05:08:38;99377.38;;;19.25;87.33
77110;BME280;66062;52.464;16.922;2023-07-02T05:11:03;99376.56;;;19.06;87.89
77110;BME280;66062;52.464;16.922;2023-07-02T05:13:29;99380.78;;;19.20;87.98
77110;BME280;66062;52.464;16.922;2023-07-02T05:15:54;99388.00;;;19.27;87.16
77110;BME280;66062;52.464;16.922;2023-07-02T05:18:19;99391.16;;;19.23;87.36
77110;BME280;66062;52.464;16.922;2023-07-02T05:20:45;99385.59;;;19.18;87.36
77110;BME280;66062;52.464;16.922;2023-07-02T05:23:10;99395.88;;;19.10;87.33
77110;BME280;66062;52.464;16.922;2023-07-02T05:25:35;99388.44;;;19.23;86.80
77110;BME280;66062;52.464;16.922;2023-07-02T05:28:01;99394.84;;;19.29;87.05
77110;BME280;66062;52.464;16.922;2023-07-02T05:30:26;99400.25;;;19.29;85.55
77110;BME280;66062;52.464;16.922;2023-07-02T05:32:52;99403.63;;;19.06;86.36
77110;BME280;66062;52.464;16.922;2023-07-02T05:35:17;99409.03;;;19.06;86.19
77110;BME280;66062;52.464;16.922;2023-07-02T05:37:43;99403.91;;;19.16;85.15
77110;BME280;66062;52.464;16.922;2023-07-02T05:40:08;99406.47;;;19.11;84.46
77110;BME280;66062;52.464;16.922;2023-07-02T05:42:34;99402.66;;;19.19;84.86
77110;BME280;66062;52.464;16.922;2023-07-02T05:45:00;99399.03;;;19.43;83.58
77110;BME280;66062;52.464;16.922;2023-07-02T05:47:25;99411.75;;;19.25;83.28
77110;BME280;66062;52.464;16.922;2023-07-02T05:49:51;99413.91;;;19.16;83.29
77110;BME280;66062;52.464;16.922;2023-07-02T05:52:16;99417.00;;;19.19;83.18
77110;BME280;66062;52.464;16.922;2023-07-02T05:54:42;99415.56;;;19.35;82.58
77110;BME280;66062;52.464;16.922;2023-07-02T05:57:07;99433.63;;;19.23;82.48
77110;BME280;66062;52.464;16.922;2023-07-02T05:59:32;99422.13;;;19.28;82.71
77110;BME280;66062;52.464;16.922;2023-07-02T06:01:58;99426.91;;;19.50;80.96
77110;BME280;66062;52.464;16.922;2023-07-02T06:04:23;99422.06;;;19.71;79.38
77110;BME280;66062;52.464;16.922;2023-07-02T06:06:49;99419.66;;;19.62;79.14
77110;BME280;66062;52.464;16.922;2023-07-02T06:09:14;99410.28;;;19.77;77.86
77110;BME280;66062;52.464;16.922;2023-07-02T06:11:39;99419.31;;;19.89;77.12
77110;BME280;66062;52.464;16.922;2023-07-02T06:14:05;99411.66;;;19.97;75.13
77110;BME280;66062;52.464;16.922;2023-07-02T06:16:30;99426.44;;;20.13;74.40
77110;BME280;66062;52.464;16.922;2023-07-02T06:18:56;99425.19;;;20.16;71.70
77110;BME280;66062;52.464;16.922;2023-07-02T06:21:21;99422.03;;;20.30;71.32
77110;BME280;66062;52.464;16.922;2023-07-02T06:23:49;99422.03;;;21.07;67.08
77110;BME280;66062;52.464;16.922;2023-07-02T06:26:17;99415.06;;;20.99;65.82
77110;BME280;66062;52.464;16.922;2023-07-02T06:28:42;99423.69;;;21.31;63.91
77110;BME280;66062;52.464;16.922;2023-07-02T06:31:08;99425.69;;;21.12;63.86
77110;BME280;66062;52.464;16.922;2023-07-02T06:33:33;99431.09;;;20.66;65.70
77110;BME280;66062;52.464;16.922;2023-07-02T06:36:04;99429.44;;;20.88;64.96
77110;BME280;66062;52.464;16.922;2023-07-02T06:38:35;99440.34;;;21.23;64.77
77110;BME280;66062;52.464;16.922;2023-07-02T06:41:01;99424.97;;;21.28;64.19
77110;BME280;66062;52.464;16.922;2023-07-02T06:43:26;99442.91;;;21.06;64.16
77110;BME280;66062;52.464;16.922;2023-07-02T06:45:52;99443.13;;;20.70;65.80
77110;BME280;66062;52.464;16.922;2023-07-02T06:48:17;99447.41;;;21.12;65.88
77110;BME280;66062;52.464;16.922;2023-07-02T06:50:47;99455.88;;;21.04;65.01
77110;BME280;66062;52.464;16.922;2023-07-02T06:53:13;99445.63;;;21.29;64.45
77110;BME280;66062;52.464;16.922;2023-07-02T06:55:38;99448.56;;;21.40;62.97
77110;BME280;66062;52.464;16.922;2023-07-02T06:58:08;99450.00;;;21.19;63.89
77110;BME280;66062;52.464;16.922;2023-07-02T07:00:33;99452.09;;;21.40;62.66
77110;BME280;66062;52.464;16.922;2023-07-02T07:03:04;99439.47;;;21.11;64.26
77110;BME280;66062;52.464;16.922;2023-07-02T07:05:30;99440.69;;;21.78;62.15
77110;BME280;66062;52.464;16.922;2023-07-02T07:07:57;99438.00;;;22.35;58.98
77110;BME280;66062;52.464;16.922;2023-07-02T07:10:23;99446.16;;;22.06;60.27
77110;BME280;66062;52.464;16.922;2023-07-02T07:12:48;99441.50;;;22.18;57.85
77110;BME280;66062;52.464;16.922;2023-07-02T07:15:14;99453.06;;;21.86;57.08
77110;BME280;66062;52.464;16.922;2023-07-02T07:17:39;99454.38;;;21.83;57.60
77110;BME280;66062;52.464;16.922;2023-07-02T07:20:05;99462.97;;;21.40;57.99
77110;BME280;66062;52.464;16.922;2023-07-02T07:22:31;99454.56;;;20.83;59.40
77110;BME280;66062;52.464;16.922;2023-07-02T07:24:56;99464.91;;;20.63;60.32
77110;BME280;66062;52.464;16.922;2023-07-02T07:27:25;99460.53;;;20.51;60.77
77110;BME280;66062;52.464;16.922;2023-07-02T07:29:50;99462.84;;;20.77;60.75
77110;BME280;66062;52.464;16.922;2023-07-02T07:32:16;99463.78;;;21.41;58.68
77110;BME280;66062;52.464;16.922;2023-07-02T07:34:42;99466.09;;;21.72;57.50
77110;BME280;66062;52.464;16.922;2023-07-02T07:37:07;99468.91;;;22.62;55.29
77110;BME280;66062;52.464;16.922;2023-07-02T07:39:33;99453.44;;;23.13;53.26
77110;BME280;66062;52.464;16.922;2023-07-02T07:41:58;99450.22;;;23.54;52.53
77110;BME280;66062;52.464;16.922;2023-07-02T07:44:24;99455.69;;;23.16;53.94
77110;BME280;66062;52.464;16.922;2023-07-02T07:46:57;99441.75;;;23.72;51.92
77110;BME280;66062;52.464;16.922;2023-07-02T07:49:22;99453.31;;;25.71;47.08
77110;BME280;66062;52.464;16.922;2023-07-02T07:51:48;99457.75;;;24.66;48.75
77110;BME280;66062;52.464;16.922;2023-07-02T07:54:14;99456.66;;;24.35;49.80
77110;BME280;66062;52.464;16.922;2023-07-02T07:56:40;99450.06;;;24.90;46.95
77110;BME280;66062;52.464;16.922;2023-07-02T07:59:05;99456.81;;;25.14;46.68
77110;BME280;66062;52.464;16.922;2023-07-02T08:01:31;99461.47;;;26.33;42.59
77110;BME280;66062;52.464;16.922;2023-07-02T08:03:59;99456.22;;;25.12;44.74
77110;BME280;66062;52.464;16.922;2023-07-02T08:06:25;99456.97;;;24.70;45.75
77110;BME280;66062;52.464;16.922;2023-07-02T08:08:51;99465.41;;;24.37;43.73
77110;BME280;66062;52.464;16.922;2023-07-02T08:11:16;99464.50;;;23.44;46.00
77110;BME280;66062;52.464;16.922;2023-07-02T08:13:42;99477.97;;;24.97;41.64
77110;BME280;66062;52.464;16.922;2023-07-02T08:16:08;99471.56;;;26.22;39.03
77110;BME280;66062;52.464;16.922;2023-07-02T08:18:35;99455.47;;;26.41;38.40
77110;BME280;66062;52.464;16.922;2023-07-02T08:21:01;99455.44;;;27.57;35.76
77110;BME280;66062;52.464;16.922;2023-07-02T08:23:29;99466.94;;;27.34;34.91
77110;BME280;66062;52.464;16.922;2023-07-02T08:25:55;99466.50;;;27.96;35.56
77110;BME280;66062;52.464;16.922;2023-07-02T08:28:24;99467.22;;;28.61;32.61
77110;BME280;66062;52.464;16.922;2023-07-02T08:30:49;99467.81;;;26.64;36.18
77110;BME280;66062;52.464;16.922;2023-07-02T08:33:18;99471.66;;;28.08;34.29
77110;BME280;66062;52.464;16.922;2023-07-02T08:35:43;99469.06;;;28.71;32.75
77110;BME280;66062;52.464;16.922;2023-07-02T08:38:12;99478.63;;;28.83;32.35
77110;BME280;66062;52.464;16.922;2023-07-02T08:40:49;99473.19;;;27.70;33.25
77110;BME280;66062;52.464;16.922;2023-07-02T08:43:25;99475.31;;;27.88;33.17
77110;BME280;66062;52.464;16.922;2023-07-02T08:45:59;99476.53;;;27.57;33.40
77110;BME280;66062;52.464;16.922;2023-07-02T08:48:26;99470.47;;;27.65;32.91
77110;BME280;66062;52.464;16.922;2023-07-02T08:50:59;99479.91;;;28.13;32.43
77110;BME280;66062;52.464;16.922;2023-07-02T08:53:24;99478.25;;;28.12;32.52
77110;BME280;66062;52.464;16.922;2023-07-02T08:55:57;99466.00;;;29.11;30.70
77110;BME280;66062;52.464;16.922;2023-07-02T08:58:37;99463.34;;;28.72;31.35
77110;BME280;66062;52.464;16.922;2023-07-02T09:01:13;99471.13;;;28.50;31.32
77110;BME280;66062;52.464;16.922;2023-07-02T09:03:40;99474.50;;;29.15;30.79
77110;BME280;66062;52.464;16.922;2023-07-02T09:06:09;99470.34;;;29.46;29.65
77110;BME280;66062;52.464;16.922;2023-07-02T09:08:42;99469.38;;;30.27;28.96
77110;BME280;66062;52.464;16.922;2023-07-02T09:11:13;99472.69;;;28.66;29.59
77110;BME280;66062;52.464;16.922;2023-07-02T09:13:48;99470.28;;;29.22;28.89
77110;BME280;66062;52.464;16.922;2023-07-02T09:16:32;99463.91;;;29.32;29.64
77110;BME280;66062;52.464;16.922;2023-07-02T09:19:10;99465.91;;;28.92;29.56
77110;BME280;66062;52.464;16.922;2023-07-02T09:24:38;99470.25;;;29.80;29.08
77110;BME280;66062;52.464;16.922;2023-07-02T09:27:06;99471.31;;;29.60;29.78
77110;BME280;66062;52.464;16.922;2023-07-02T09:29:33;99468.00;;;30.43;30.36
77110;BME280;66062;52.464;16.922;2023-07-02T09:32:06;99485.03;;;30.50;28.57
77110;BME280;66062;52.464;16.922;2023-07-02T09:34:34;99470.38;;;29.94;29.76
77110;BME280;66062;52.464;16.922;2023-07-02T09:37:04;99474.94;;;28.59;31.29
77110;BME280;66062;52.464;16.922;2023-07-02T09:39:42;99482.91;;;28.12;32.27
77110;BME280;66062;52.464;16.922;2023-07-02T09:42:14;99472.75;;;29.24;30.43
77110;BME280;66062;52.464;16.922;2023-07-02T09:45:05;99475.31;;;29.97;30.38
77110;BME280;66062;52.464;16.922;2023-07-02T09:47:42;99468.13;;;30.57;28.17
77110;BME280;66062;52.464;16.922;2023-07-02T09:50:14;99465.06;;;30.58;27.85
77110;BME280;66062;52.464;16.922;2023-07-02T09:52:50;99461.75;;;29.53;27.50
77110;BME280;66062;52.464;16.922;2023-07-02T09:55:15;99471.13;;;28.50;30.08
77110;BME280;66062;52.464;16.922;2023-07-02T09:57:43;99472.97;;;29.04;28.99
77110;BME280;66062;52.464;16.922;2023-07-02T10:00:12;99480.91;;;29.87;27.24
77110;BME280;66062;52.464;16.922;2023-07-02T10:02:38;99473.13;;;30.12;27.58
77110;BME280;66062;52.464;16.922;2023-07-02T10:05:22;99475.28;;;29.20;29.25
77110;BME280;66062;52.464;16.922;2023-07-02T10:07:49;99475.97;;;27.60;31.68
77110;BME280;66062;52.464;16.922;2023-07-02T10:10:29;99473.88;;;28.01;30.86
77110;BME280;66062;52.464;16.922;2023-07-02T10:12:55;99470.13;;;29.14;29.96
77110;BME280;66062;52.464;16.922;2023-07-02T10:15:29;99467.63;;;31.06;26.72
77110;BME280;66062;52.464;16.922;2023-07-02T10:18:02;99469.66;;;29.83;27.20
77110;BME280;66062;52.464;16.922;2023-07-02T10:20:46;99476.06;;;30.21;26.85
77110;BME280;66062;52.464;16.922;2023-07-02T10:23:12;99479.38;;;29.99;27.72
77110;BME280;66062;52.464;16.922;2023-07-02T10:25:38;99487.22;;;27.33;31.85
77110;BME280;66062;52.464;16.922;2023-07-02T10:28:20;99487.00;;;25.34;35.73
77110;BME280;66062;52.464;16.922;2023-07-02T10:30:52;99488.47;;;24.51;37.49
77110;BME280;66062;52.464;16.922;2023-07-02T10:33:19;99484.28;;;25.91;35.17
77110;BME280;66062;52.464;16.922;2023-07-02T10:35:46;99475.00;;;28.88;30.93
77110;BME280;66062;52.464;16.922;2023-07-02T10:40:53;99467.88;;;30.16;27.88
77110;BME280;66062;52.464;16.922;2023-07-02T10:43:26;99471.13;;;30.93;27.54
77110;BME280;66062;52.464;16.922;2023-07-02T10:45:54;99471.59;;;30.44;27.83
77110;BME280;66062;52.464;16.922;2023-07-02T10:48:20;99467.22;;;30.62;28.25
77110;BME280;66062;52.464;16.922;2023-07-02T10:50:45;99469.88;;;30.85;26.36
77110;BME280;66062;52.464;16.922;2023-07-02T10:53:17;99459.75;;;31.73;25.94
77110;BME280;66062;52.464;16.922;2023-07-02T10:55:52;99463.34;;;31.73;25.53
77110;BME280;66062;52.464;16.922;2023-07-02T10:58:22;99472.16;;;30.97;26.19
77110;BME280;66062;52.464;16.922;2023-07-02T11:00:50;99465.91;;;29.50;28.07
77110;BME280;66062;52.464;16.922;2023-07-02T11:03:20;99460.88;;;29.81;28.56
77110;BME280;66062;52.464;16.922;2023-07-02T11:05:47;99471.06;;;30.23;28.78
77110;BME280;66062;52.464;16.922;2023-07-02T11:08:13;99471.03;;;28.65;29.98
77110;BME280;66062;52.464;16.922;2023-07-02T11:10:39;99471.34;;;27.30;31.87
77110;BME280;66062;52.464;16.922;2023-07-02T11:13:19;99481.75;;;26.77;32.70
77110;BME280;66062;52.464;16.922;2023-07-02T11:15:46;99484.81;;;25.41;34.11
77110;BME280;66062;52.464;16.922;2023-07-02T11:18:16;99487.56;;;25.04;35.99
77110;BME280;66062;52.464;16.922;2023-07-02T11:20:55;99487.00;;;24.97;35.80
77110;BME280;66062;52.464;16.922;2023-07-02T11:23:25;99489.56;;;26.13;33.71
77110;BME280;66062;52.464;16.922;2023-07-02T11:26:00;99489.44;;;25.83;34.46
77110;BME280;66062;52.464;16.922;2023-07-02T11:28:30;99485.63;;;25.37;35.77
77110;BME280;66062;52.464;16.922;2023-07-02T11:30:58;99484.25;;;27.24;32.67
77110;BME280;66062;52.464;16.922;2023-07-02T11:33:41;99484.09;;;26.18;33.93
77110;BME280;66062;52.464;16.922;2023-07-02T11:36:20;99489.50;;;25.93;35.12
77110;BME280;66062;52.464;16.922;2023-07-02T11:38:47;99495.22;;;25.39;34.07
77110;BME280;66062;52.464;16.922;2023-07-02T11:41:18;99489.06;;;25.22;35.00
77110;BME280;66062;52.464;16.922;2023-07-02T11:43:45;99485.63;;;26.76;33.53
77110;BME280;66062;52.464;16.922;2023-07-02T11:46:11;99480.78;;;27.93;30.64
77110;BME280;66062;52.464;16.922;2023-07-02T11:48:36;99492.19;;;26.65;32.28
77110;BME280;66062;52.464;16.922;2023-07-02T11:51:11;99495.13;;;25.71;34.57
77110;BME280;66062;52.464;16.922;2023-07-02T11:53:42;99508.09;;;27.14;32.15
77110;BME280;66062;52.464;16.922;2023-07-02T11:56:09;99504.75;;;27.47;31.24
77110;BME280;66062;52.464;16.922;2023-07-02T11:58:42;99500.38;;;26.60;32.35
77110;BME280;66062;52.464;16.922;2023-07-02T12:01:26;99495.47;;;27.23;32.09
77110;BME280;66062;52.464;16.922;2023-07-02T12:03:53;99497.38;;;27.43;31.19
77110;BME280;66062;52.464;16.922;2023-07-02T12:06:19;99492.59;;;28.48;31.11
77110;BME280;66062;52.464;16.922;2023-07-02T12:08:45;99497.44;;;29.29;30.03
77110;BME280;66062;52.464;16.922;2023-07-02T12:11:11;99507.78;;;26.85;32.74
77110;BME280;66062;52.464;16.922;2023-07-02T12:13:44;99520.03;;;25.75;34.07
77110;BME280;66062;52.464;16.922;2023-07-02T12:16:13;99515.84;;;24.35;37.26
77110;BME280;66062;52.464;16.922;2023-07-02T12:18:54;99527.06;;;24.65;37.42
77110;BME280;66062;52.464;16.922;2023-07-02T12:21:20;99541.28;;;23.97;39.57
77110;BME280;66062;52.464;16.922;2023-07-02T12:23:45;99534.00;;;23.64;39.52
77110;BME280;66062;52.464;16.922;2023-07-02T12:26:11;99545.69;;;23.26;39.90
77110;BME280;66062;52.464;16.922;2023-07-02T12:28:37;99534.28;;;23.46;39.79
77110;BME280;66062;52.464;16.922;2023-07-02T12:31:02;99549.28;;;23.65;39.55
77110;BME280;66062;52.464;16.922;2023-07-02T12:33:31;99547.63;;;23.64;39.71
77110;BME280;66062;52.464;16.922;2023-07-02T12:35:56;99543.13;;;24.61;38.27
77110;BME280;66062;52.464;16.922;2023-07-02T12:38:22;99551.88;;;25.17;37.65
77110;BME280;66062;52.464;16.922;2023-07-02T12:40:50;99550.84;;;25.65;36.99
77110;BME280;66062;52.464;16.922;2023-07-02T12:43:16;99551.66;;;25.61;36.11
77110;BME280;66062;52.464;16.922;2023-07-02T12:45:41;99561.09;;;25.11;36.97
77110;BME280;66062;52.464;16.922;2023-07-02T12:48:07;99562.69;;;25.39;36.34
77110;BME280;66062;52.464;16.922;2023-07-02T12:50:32;99569.13;;;25.23;36.35
77110;BME280;66062;52.464;16.922;2023-07-02T12:53:02;99573.19;;;25.20;36.69
77110;BME280;66062;52.464;16.922;2023-07-02T12:55:28;99566.22;;;25.76;35.79
77110;BME280;66062;52.464;16.922;2023-07-02T12:57:53;99582.75;;;25.96;35.15